sensor_id;sensor_type;location;lat;lon;timestamp;pressure;altitude;pressure_sealevel;temperature;humidity
75414;BME280;64758;52.122;5.404;2023-02-21T00:01:36;102293.41;;;8.39;100.00
75414;BME280;64758;52.122;5.404;2023-02-21T00:04:21;102298.16;;;8.35;100.00
75414;BME280;64758;52.122;5.404;2023-02-21T00:07:06;102298.41;;;8.32;100.00
75414;BME280;64758;52.122;5.404;2023-02-21T00:09:51;102300.91;;;8.34;100.00
75414;BME280;64758;52.122;5.404;2023-02-21T00:12:36;102292.97;;;8.34;100.00
75414;BME280;64758;52.122;5.404;2023-02-21T00:15:21;102300.09;;;8.33;100.00
75414;BME280;64758;52.122;5.404;2023-02-21T00:18:05;102295.78;;;8.32;100.00
75414;BME280;64758;52.122;5.404;2023-02-21T00:20:50;102296.75;;;8.31;100.00
75414;BME280;64758;52.122;5.404;2023-02-21T00:23:35;102291.56;;;8.30;100.00
75414;BME280;64758;52.122;5.404;2023-02-21T00:26:21;102298.41;;;8.32;100.00
75414;BME280;64758;52.122;5.404;2023-02-21T00:29:06;102299.41;;;8.31;100.00
75414;BME280;64758;52.122;5.404;2023-02-21T00:31:52;102307.34;;;8.31;100.00
75414;BME280;64758;52.122;5.404;2023-02-21T00:34:37;102304.53;;;8.33;100.00
75414;BME280;64758;52.122;5.404;2023-02-21T00:37:22;102307.88;;;8.35;100.00
75414;BME280;64758;52.122;5.404;2023-02-21T00:40:11;102296.75;;;8.31;100.00
75414;BME280;64758;52.122;5.404;2023-02-21T00:42:57;102301.06;;;8.32;100.00
75414;BME280;64758;52.122;5.404;2023-02-21T00:45:42;102289.78;;;8.30;100.00
75414;BME280;64758;52.122;5.404;2023-02-21T00:48:28;102293.41;;;8.29;100.00
75414;BME280;64758;52.122;5.404;2023-02-21T00:51:13;102296.03;;;8.29;100.00
75414;BME280;64758;52.122;5.404;2023-02-21T00:53:58;102291.72;;;8.28;100.00
75414;BME280;64758;52.122;5.404;2023-02-21T00:56:44;102286.44;;;8.28;100.00
75414;BME280;64758;52.122;5.404;2023-02-21T00:59:29;102282.81;;;8.29;100.00
75414;BME280;64758;52.122;5.404;2023-02-21T01:02:14;102290.59;;;8.31;100.00
75414;BME280;64758;52.122;5.404;2023-02-21T01:04:59;102281.84;;;8.30;100.00
75414;BME280;64758;52.122;5.404;2023-02-21T01:07:44;102269.56;;;8.29;100.00
75414;BME280;64758;52.122;5.404;2023-02-21T01:10:30;102274.72;;;8.31;100.00
75414;BME280;64758;52.122;5.404;2023-02-21T01:13:15;102266.78;;;8.31;100.00
75414;BME280;64758;52.122;5.404;2023-02-21T01:16:00;102271.09;;;8.32;100.00
75414;BME280;64758;52.122;5.404;2023-02-21T01:18:45;102278.22;;;8.31;100.00
75414;BME280;64758;52.122;5.404;2023-02-21T01:21:30;102276.53;;;8.30;100.00
75414;BME280;64758;52.122;5.404;2023-02-21T01:24:15;102283.50;;;8.31;100.00
75414;BME280;64758;52.122;5.404;2023-02-21T01:27:00;102285.72;;;8.26;100.00
75414;BME280;64758;52.122;5.404;2023-02-21T01:29:47;102266.50;;;8.24;100.00
75414;BME280;64758;52.122;5.404;2023-02-21T01:32:32;102264.56;;;8.26;100.00
75414;BME280;64758;52.122;5.404;2023-02-21T01:35:17;102266.34;;;8.26;100.00
75414;BME280;64758;52.122;5.404;2023-02-21T01:38:02;102262.19;;;8.23;100.00
75414;BME280;64758;52.122;5.404;2023-02-21T01:40:48;102250.63;;;8.24;100.00
75414;BME280;64758;52.122;5.404;2023-02-21T01:43:33;102257.44;;;8.27;100.00
75414;BME280;64758;52.122;5.404;2023-02-21T01:46:19;102252.13;;;8.27;100.00
75414;BME280;64758;52.122;5.404;2023-02-21T01:49:08;102248.69;;;8.26;100.00
75414;BME280;64758;52.122;5.404;2023-02-21T01:51:56;102250.47;;;8.26;100.00
75414;BME280;64758;52.122;5.404;2023-02-21T01:54:47;102248.53;;;8.28;100.00
75414;BME280;64758;52.122;5.404;2023-02-21T01:57:34;102256.47;;;8.28;100.00
75414;BME280;64758;52.122;5.404;2023-02-21T02:00:20;102259.09;;;8.28;100.00
75414;BME280;64758;52.122;5.404;2023-02-21T02:03:08;102245.06;;;8.27;100.00
75414;BME280;64758;52.122;5.404;2023-02-21T02:06:02;102240.56;;;8.28;100.00
75414;BME280;64758;52.122;5.404;2023-02-21T02:08:48;102238.78;;;8.28;100.00
75414;BME280;64758;52.122;5.404;2023-02-21T02:16:59;102243.09;;;8.29;100.00
75414;BME280;64758;52.122;5.404;2023-02-21T02:19:45;102238.78;;;8.28;100.00
75414;BME280;64758;52.122;5.404;2023-02-21T02:27:49;102236.84;;;8.30;100.00
75414;BME280;64758;52.122;5.404;2023-02-21T02:30:50;102238.50;;;8.31;100.00
75414;BME280;64758;52.122;5.404;2023-02-21T02:36:09;102234.88;;;8.32;100.00
75414;BME280;64758;52.122;5.404;2023-02-21T02:42:15;102231.97;;;8.35;100.00
75414;BME280;64758;52.122;5.404;2023-02-21T02:47:54;102235.44;;;8.36;100.00
75414;BME280;64758;52.122;5.404;2023-02-21T02:50:25;102229.44;;;8.34;100.00
75414;BME280;64758;52.122;5.404;2023-02-21T02:52:54;102244.06;;;8.38;100.00
75414;BME280;64758;52.122;5.404;2023-02-21T02:55:35;102244.50;;;8.33;100.00
75414;BME280;64758;52.122;5.404;2023-02-21T02:58:05;102246.88;;;8.36;100.00
75414;BME280;64758;52.122;5.404;2023-02-21T03:00:34;102238.34;;;8.33;100.00
75414;BME280;64758;52.122;5.404;2023-02-21T03:05:52;102233.75;;;8.35;100.00
75414;BME280;64758;52.122;5.404;2023-02-21T03:08:37;102236.56;;;8.33;100.00
75414;BME280;64758;52.122;5.404;2023-02-21T03:11:17;102236.69;;;8.32;100.00
75414;BME280;64758;52.122;5.404;2023-02-21T03:13:56;102233.50;;;8.28;100.00
75414;BME280;64758;52.122;5.404;2023-02-21T03:16:32;102226.25;;;8.30;100.00
75414;BME280;64758;52.122;5.404;2023-02-21T03:19:04;102229.88;;;8.29;100.00
75414;BME280;64758;52.122;5.404;2023-02-21T03:21:42;102230.84;;;8.28;100.00
75414;BME280;64758;52.122;5.404;2023-02-21T03:24:12;102223.88;;;8.27;100.00
75414;BME280;64758;52.122;5.404;2023-02-21T03:26:41;102236.25;;;8.27;100.00
75414;BME280;64758;52.122;5.404;2023-02-21T03:29:10;102227.34;;;8.28;100.00
75414;BME280;64758;52.122;5.404;2023-02-21T03:31:43;102217.72;;;8.27;100.00
75414;BME280;64758;52.122;5.404;2023-02-21T03:34:10;102220.38;;;8.27;100.00
75414;BME280;64758;52.122;5.404;2023-02-21T03:36:37;102219.56;;;8.26;100.00
75414;BME280;64758;52.122;5.404;2023-02-21T03:39:04;102224.16;;;8.24;100.00
75414;BME280;64758;52.122;5.404;2023-02-21T03:41:31;102229.19;;;8.27;100.00
75414;BME280;64758;52.122;5.404;2023-02-21T03:43:57;102227.50;;;8.26;100.00
75414;BME280;64758;52.122;5.404;2023-02-21T03:46:24;102221.22;;;8.27;100.00
75414;BME280;64758;52.122;5.404;2023-02-21T03:48:50;102226.53;;;8.27;100.00
75414;BME280;64758;52.122;5.404;2023-02-21T03:51:17;102219.56;;;8.26;100.00
75414;BME280;64758;52.122;5.404;2023-02-21T03:53:44;102223.03;;;8.27;100.00
75414;BME280;64758;52.122;5.404;2023-02-21T03:56:10;102217.72;;;8.27;100.00
75414;BME280;64758;52.122;5.404;2023-02-21T03:58:37;102221.94;;;8.29;100.00
75414;BME280;64758;52.122;5.404;2023-02-21T04:01:04;102233.50;;;8.28;100.00
75414;BME280;64758;52.122;5.404;2023-02-21T04:03:30;102222.06;;;8.28;100.00
75414;BME280;64758;52.122;5.404;2023-02-21T04:05:57;102220.25;;;8.28;100.00
75414;BME280;64758;52.122;5.404;2023-02-21T04:08:23;102208.97;;;8.26;100.00
75414;BME280;64758;52.122;5.404;2023-02-21T04:10:50;102202.81;;;8.26;100.00
75414;BME280;64758;52.122;5.404;2023-02-21T04:13:18;102215.94;;;8.27;100.00
75414;BME280;64758;52.122;5.404;2023-02-21T04:15:45;102215.78;;;8.29;100.00
75414;BME280;64758;52.122;5.404;2023-02-21T04:18:12;102220.25;;;8.28;100.00
75414;BME280;64758;52.122;5.404;2023-02-21T04:20:38;102215.66;;;8.30;100.00
75414;BME280;64758;52.122;5.404;2023-02-21T04:23:05;102223.44;;;8.32;100.00
75414;BME280;64758;52.122;5.404;2023-02-21T04:25:31;102215.66;;;8.30;100.00
75414;BME280;64758;52.122;5.404;2023-02-21T04:27:58;102211.06;;;8.32;100.00
75414;BME280;64758;52.122;5.404;2023-02-21T04:30:24;102214.53;;;8.33;100.00
75414;BME280;64758;52.122;5.404;2023-02-21T04:32:51;102209.25;;;8.33;100.00
75414;BME280;64758;52.122;5.404;2023-02-21T04:35:17;102198.22;;;8.28;100.00
75414;BME280;64758;52.122;5.404;2023-02-21T04:37:44;102205.19;;;8.29;100.00
75414;BME280;64758;52.122;5.404;2023-02-21T04:40:11;102203.69;;;8.26;100.00
75414;BME280;64758;52.122;5.404;2023-02-21T04:42:38;102194.06;;;8.25;100.00
75414;BME280;64758;52.122;5.404;2023-02-21T04:45:05;102188.91;;;8.24;100.00
75414;BME280;64758;52.122;5.404;2023-02-21T04:47:31;102197.69;;;8.24;100.00
75414;BME280;64758;52.122;5.404;2023-02-21T04:49:58;102192.50;;;8.23;100.00
75414;BME280;64758;52.122;5.404;2023-02-21T04:52:24;102195.75;;;8.26;100.00
75414;BME280;64758;52.122;5.404;2023-02-21T04:54:51;102189.75;;;8.24;100.00
75414;BME280;64758;52.122;5.404;2023-02-21T04:57:17;102197.25;;;8.19;100.00
75414;BME280;64758;52.122;5.404;2023-02-21T04:59:44;102197.25;;;8.19;100.00
75414;BME280;64758;52.122;5.404;2023-02-21T05:02:10;102200.72;;;8.20;100.00
75414;BME280;64758;52.122;5.404;2023-02-21T05:04:37;102195.84;;;8.15;100.00
75414;BME280;64758;52.122;5.404;2023-02-21T05:07:04;102193.19;;;8.15;100.00
75414;BME280;64758;52.122;5.404;2023-02-21T05:09:31;102212.16;;;8.20;100.00
75414;BME280;64758;52.122;5.404;2023-02-21T05:11:57;102207.84;;;8.19;100.00
75414;BME280;64758;52.122;5.404;2023-02-21T05:14:24;102202.69;;;8.18;100.00
75414;BME280;64758;52.122;5.404;2023-02-21T05:16:50;102212.16;;;8.20;100.00
75414;BME280;64758;52.122;5.404;2023-02-21T05:19:18;102202.78;;;8.16;100.00
75414;BME280;64758;52.122;5.404;2023-02-21T05:21:57;102216.59;;;8.20;100.00
75414;BME280;64758;52.122;5.404;2023-02-21T05:24:25;102211.47;;;8.18;100.00
75414;BME280;64758;52.122;5.404;2023-02-21T05:26:53;102215.78;;;8.19;100.00
75414;BME280;64758;52.122;5.404;2023-02-21T05:29:20;102222.88;;;8.19;100.00
75414;BME280;64758;52.122;5.404;2023-02-21T05:31:47;102220.38;;;8.17;100.00
75414;BME280;64758;52.122;5.404;2023-02-21T05:34:14;102217.81;;;8.16;100.00
75414;BME280;64758;52.122;5.404;2023-02-21T05:36:41;102210.75;;;8.16;100.00
75414;BME280;64758;52.122;5.404;2023-02-21T05:39:07;102212.81;;;8.13;100.00
75414;BME280;64758;52.122;5.404;2023-02-21T05:41:34;102210.31;;;8.11;100.00
75414;BME280;64758;52.122;5.404;2023-02-21T05:44:01;102217.00;;;8.15;100.00
75414;BME280;64758;52.122;5.404;2023-02-21T05:46:34;102223.84;;;8.18;100.00
75414;BME280;64758;52.122;5.404;2023-02-21T05:49:02;102220.47;;;8.16;100.00
75414;BME280;64758;52.122;5.404;2023-02-21T05:51:41;102229.13;;;8.18;100.00
75414;BME280;64758;52.122;5.404;2023-02-21T05:54:12;102216.88;;;8.17;100.00
75414;BME280;64758;52.122;5.404;2023-02-21T05:56:40;102221.31;;;8.16;100.00
75414;BME280;64758;52.122;5.404;2023-02-21T05:59:07;102217.97;;;8.14;100.00
75414;BME280;64758;52.122;5.404;2023-02-21T06:01:34;102219.66;;;8.15;100.00
75414;BME280;64758;52.122;5.404;2023-02-21T06:04:01;102230.81;;;8.19;100.00
75414;BME280;64758;52.122;5.404;2023-02-21T06:06:28;102232.38;;;8.21;100.00
75414;BME280;64758;52.122;5.404;2023-02-21T06:08:54;102234.31;;;8.19;100.00
75414;BME280;64758;52.122;5.404;2023-02-21T06:11:26;102230.00;;;8.18;100.00
75414;BME280;64758;52.122;5.404;2023-02-21T06:13:55;102224.94;;;8.15;100.00
75414;BME280;64758;52.122;5.404;2023-02-21T06:16:23;102222.28;;;8.15;100.00
75414;BME280;64758;52.122;5.404;2023-02-21T06:18:54;102228.69;;;8.13;100.00
75414;BME280;64758;52.122;5.404;2023-02-21T06:21:21;102235.66;;;8.14;100.00
75414;BME280;64758;52.122;5.404;2023-02-21T06:23:47;102232.03;;;8.15;100.00
75414;BME280;64758;52.122;5.404;2023-02-21T06:26:15;102231.31;;;8.13;100.00
75414;BME280;64758;52.122;5.404;2023-02-21T06:28:42;102227.84;;;8.12;100.00
75414;BME280;64758;52.122;5.404;2023-02-21T06:31:09;102227.28;;;8.09;100.00
75414;BME280;64758;52.122;5.404;2023-02-21T06:33:36;102229.81;;;8.10;100.00
75414;BME280;64758;52.122;5.404;2023-02-21T06:36:07;102220.91;;;8.11;100.00
75414;BME280;64758;52.122;5.404;2023-02-21T06:38:35;102233.16;;;8.12;100.00
75414;BME280;64758;52.122;5.404;2023-02-21T06:41:07;102236.19;;;8.08;100.00
75414;BME280;64758;52.122;5.404;2023-02-21T06:43:34;102234.25;;;8.10;100.00
75414;BME280;64758;52.122;5.404;2023-02-21T06:46:02;102241.78;;;8.14;100.00
75414;BME280;64758;52.122;5.404;2023-02-21T06:48:30;102242.88;;;8.12;100.00
75414;BME280;64758;52.122;5.404;2023-02-21T06:50:58;102235.09;;;8.10;100.00
75414;BME280;64758;52.122;5.404;2023-02-21T06:53:24;102231.22;;;8.14;100.00
75414;BME280;64758;52.122;5.404;2023-02-21T06:55:51;102237.47;;;8.13;100.00
75414;BME280;64758;52.122;5.404;2023-02-21T06:58:17;102232.44;;;8.10;100.00
75414;BME280;64758;52.122;5.404;2023-02-21T07:00:44;102231.47;;;8.11;100.00
75414;BME280;64758;52.122;5.404;2023-02-21T07:03:10;102240.94;;;8.14;100.00
75414;BME280;64758;52.122;5.404;2023-02-21T07:05:37;102245.41;;;8.13;100.00
75414;BME280;64758;52.122;5.404;2023-02-21T07:08:04;102236.50;;;8.14;100.00
75414;BME280;64758;52.122;5.404;2023-02-21T07:10:31;102238.16;;;8.15;100.00
75414;BME280;64758;52.122;5.404;2023-02-21T07:12:57;102225.91;;;8.14;100.00
75414;BME280;64758;52.122;5.404;2023-02-21T07:15:24;102225.75;;;8.16;100.00
75414;BME280;64758;52.122;5.404;2023-02-21T07:17:50;102236.63;;;8.13;100.00
75414;BME280;64758;52.122;5.404;2023-02-21T07:20:17;102237.19;;;8.16;100.00
75414;BME280;64758;52.122;5.404;2023-02-21T07:22:43;102245.13;;;8.16;100.00
75414;BME280;64758;52.122;5.404;2023-02-21T07:25:15;102240.81;;;8.15;100.00
75414;BME280;64758;52.122;5.404;2023-02-21T07:27:42;102228.56;;;8.14;100.00
75414;BME280;64758;52.122;5.404;2023-02-21T07:30:10;102232.63;;;8.18;100.00
75414;BME280;64758;52.122;5.404;2023-02-21T07:32:36;102224.09;;;8.15;100.00
75414;BME280;64758;52.122;5.404;2023-02-21T07:35:03;102236.09;;;8.19;100.00
75414;BME280;64758;52.122;5.404;2023-02-21T07:37:30;102233.34;;;8.20;100.00
75414;BME280;64758;52.122;5.404;2023-02-21T07:39:56;102241.00;;;8.23;100.00
75414;BME280;64758;52.122;5.404;2023-02-21T07:42:23;102244.91;;;8.19;100.00
75414;BME280;64758;52.122;5.404;2023-02-21T07:44:56;102254.25;;;8.23;100.00
75414;BME280;64758;52.122;5.404;2023-02-21T07:47:26;102249.91;;;8.22;100.00
75414;BME280;64758;52.122;5.404;2023-02-21T07:49:53;102246.31;;;8.23;100.00
75414;BME280;64758;52.122;5.404;2023-02-21T07:52:20;102242.81;;;8.23;100.00
75414;BME280;64758;52.122;5.404;2023-02-21T07:54:47;102252.69;;;8.21;100.00
75414;BME280;64758;52.122;5.404;2023-02-21T07:57:15;102251.59;;;8.23;100.00
75414;BME280;64758;52.122;5.404;2023-02-21T07:59:42;102254.94;;;8.25;100.00
75414;BME280;64758;52.122;5.404;2023-02-21T08:02:12;102255.63;;;8.27;100.00
75414;BME280;64758;52.122;5.404;2023-02-21T08:04:39;102260.09;;;8.27;100.00
75414;BME280;64758;52.122;5.404;2023-02-21T08:07:07;102257.44;;;8.27;100.00
75414;BME280;64758;52.122;5.404;2023-02-21T08:09:35;102256.34;;;8.29;100.00
75414;BME280;64758;52.122;5.404;2023-02-21T08:12:02;102244.34;;;8.25;100.00
75414;BME280;64758;52.122;5.404;2023-02-21T08:14:29;102260.78;;;8.29;100.00
75414;BME280;64758;52.122;5.404;2023-02-21T08:16:55;102256.06;;;8.32;100.00
75414;BME280;64758;52.122;5.404;2023-02-21T08:19:22;102251.06;;;8.29;100.00
75414;BME280;64758;52.122;5.404;2023-02-21T08:21:49;102245.75;;;8.29;100.00
75414;BME280;64758;52.122;5.404;2023-02-21T08:24:16;102240.84;;;8.25;100.00
75414;BME280;64758;52.122;5.404;2023-02-21T08:26:43;102243.38;;;8.26;100.00
75414;BME280;64758;52.122;5.404;2023-02-21T08:29:12;102250.91;;;8.21;100.00
75414;BME280;64758;52.122;5.404;2023-02-21T08:31:40;102241.97;;;8.22;100.00
75414;BME280;64758;52.122;5.404;2023-02-21T08:34:07;102246.31;;;8.23;100.00
75414;BME280;64758;52.122;5.404;2023-02-21T08:36:36;102249.50;;;8.27;100.00
75414;BME280;64758;52.122;5.404;2023-02-21T08:39:04;102247.13;;;8.24;100.00
75414;BME280;64758;52.122;5.404;2023-02-21T08:41:42;102233.19;;;8.22;100.00
75414;BME280;64758;52.122;5.404;2023-02-21T08:44:11;102247.13;;;8.24;100.00
75414;BME280;64758;52.122;5.404;2023-02-21T08:46:38;102235.56;;;8.25;100.00
75414;BME280;64758;52.122;5.404;2023-02-21T08:49:06;102229.19;;;8.27;100.00
75414;BME280;64758;52.122;5.404;2023-02-21T08:51:33;102239.75;;;8.27;100.00
75414;BME280;64758;52.122;5.404;2023-02-21T08:54:00;102236.00;;;8.30;100.00
75414;BME280;64758;52.122;5.404;2023-02-21T08:56:28;102238.25;;;8.34;100.00
75414;BME280;64758;52.122;5.404;2023-02-21T08:58:56;102239.91;;;8.35;100.00
75414;BME280;64758;52.122;5.404;2023-02-21T09:01:23;102234.88;;;8.32;100.00
75414;BME280;64758;52.122;5.404;2023-02-21T09:03:56;102229.16;;;8.37;100.00
75414;BME280;64758;52.122;5.404;2023-02-21T09:06:22;102232.50;;;8.39;100.00
75414;BME280;64758;52.122;5.404;2023-02-21T09:08:49;102219.28;;;8.39;100.00
75414;BME280;64758;52.122;5.404;2023-02-21T09:11:16;102222.06;;;8.37;100.00
75414;BME280;64758;52.122;5.404;2023-02-21T09:13:42;102233.09;;;8.42;100.00
75414;BME280;64758;52.122;5.404;2023-02-21T09:16:09;102224.44;;;8.40;100.00
75414;BME280;64758;52.122;5.404;2023-02-21T09:18:35;102221.81;;;8.40;100.00
75414;BME280;64758;52.122;5.404;2023-02-21T09:21:02;102221.81;;;8.40;100.00
75414;BME280;64758;52.122;5.404;2023-02-21T09:23:29;102225.44;;;8.39;100.00
75414;BME280;64758;52.122;5.404;2023-02-21T09:25:58;102216.50;;;8.40;100.00
75414;BME280;64758;52.122;5.404;2023-02-21T09:28:25;102217.06;;;8.44;100.00
75414;BME280;64758;52.122;5.404;2023-02-21T09:30:51;102208.00;;;8.46;100.00
75414;BME280;64758;52.122;5.404;2023-02-21T09:33:18;102214.13;;;8.47;100.00
75414;BME280;64758;52.122;5.404;2023-02-21T09:35:44;102210.38;;;8.49;100.00
75414;BME280;64758;52.122;5.404;2023-02-21T09:38:11;102212.59;;;8.54;100.00
75414;BME280;64758;52.122;5.404;2023-02-21T09:43:09;102201.88;;;8.46;100.00
75414;BME280;64758;52.122;5.404;2023-02-21T09:45:37;102205.38;;;8.46;100.00
75414;BME280;64758;52.122;5.404;2023-02-21T09:48:12;102200.19;;;8.45;100.00
75414;BME280;64758;52.122;5.404;2023-02-21T09:50:49;102201.03;;;8.45;100.00
75414;BME280;64758;52.122;5.404;2023-02-21T09:53:24;102202.03;;;8.44;100.00
75414;BME280;64758;52.122;5.404;2023-02-21T09:55:54;102202.28;;;8.51;100.00
75414;BME280;64758;52.122;5.404;2023-02-21T09:58:22;102208.56;;;8.50;100.00
75414;BME280;64758;52.122;5.404;2023-02-21T10:00:49;102193.38;;;8.52;100.00
75414;BME280;64758;52.122;5.404;2023-02-21T10:03:29;102196.88;;;8.52;100.00
75414;BME280;64758;52.122;5.404;2023-02-21T10:06:24;102193.38;;;8.61;100.00
75414;BME280;64758;52.122;5.404;2023-02-21T10:09:00;102197.28;;;8.57;100.00
75414;BME280;64758;52.122;5.404;2023-02-21T10:11:45;102197.53;;;8.64;100.00
75414;BME280;64758;52.122;5.404;2023-02-21T10:17:10;102198.41;;;8.64;100.00
75414;BME280;64758;52.122;5.404;2023-02-21T10:19:42;102192.41;;;8.62;100.00
75414;BME280;64758;52.122;5.404;2023-02-21T10:22:17;102204.66;;;8.63;100.00
75414;BME280;64758;52.122;5.404;2023-02-21T10:24:45;102199.63;;;8.70;100.00
75414;BME280;64758;52.122;5.404;2023-02-21T10:27:24;102200.75;;;8.67;100.00
75414;BME280;64758;52.122;5.404;2023-02-21T10:30:04;102208.72;;;8.67;100.00
75414;BME280;64758;52.122;5.404;2023-02-21T10:32:34;102210.50;;;8.67;100.00
75414;BME280;64758;52.122;5.404;2023-02-21T10:35:00;102205.78;;;8.70;100.00
75414;BME280;64758;52.122;5.404;2023-02-21T10:42:51;102202.00;;;8.82;100.00
75414;BME280;64758;52.122;5.404;2023-02-21T10:45:23;102202.28;;;8.79;100.00
75414;BME280;64758;52.122;5.404;2023-02-21T10:48:02;102204.50;;;8.83;100.00
75414;BME280;64758;52.122;5.404;2023-02-21T10:50:42;102202.69;;;8.84;100.00
75414;BME280;64758;52.122;5.404;2023-02-21T10:53:23;102205.19;;;8.85;100.00
75414;BME280;64758;52.122;5.404;2023-02-21T11:03:49;102204.47;;;8.93;100.00
75414;BME280;64758;52.122;5.404;2023-02-21T11:08:53;102204.09;;;8.88;100.00
75414;BME280;64758;52.122;5.404;2023-02-21T11:11:39;102202.53;;;8.85;100.00
75414;BME280;64758;52.122;5.404;2023-02-21T11:14:24;102207.72;;;8.87;100.00
75414;BME280;64758;52.122;5.404;2023-02-21T11:19:41;102204.38;;;8.85;100.00
75414;BME280;64758;52.122;5.404;2023-02-21T11:22:08;102201.84;;;8.83;100.00
75414;BME280;64758;52.122;5.404;2023-02-21T11:24:58;102200.75;;;8.86;100.00
75414;BME280;64758;52.122;5.404;2023-02-21T11:27:28;102190.16;;;8.86;100.00
75414;BME280;64758;52.122;5.404;2023-02-21T11:29:55;102198.63;;;8.89;100.00
75414;BME280;64758;52.122;5.404;2023-02-21T11:32:35;102189.56;;;8.92;100.00
75414;BME280;64758;52.122;5.404;2023-02-21T11:35:22;102190.25;;;8.94;100.00
75414;BME280;64758;52.122;5.404;2023-02-21T11:38:03;102197.50;;;9.01;100.00
75414;BME280;64758;52.122;5.404;2023-02-21T11:40:40;102188.69;;;9.01;100.00
75414;BME280;64758;52.122;5.404;2023-02-21T11:43:19;102187.59;;;8.94;100.00
75414;BME280;64758;52.122;5.404;2023-02-21T11:48:58;102186.75;;;8.93;100.00
75414;BME280;64758;52.122;5.404;2023-02-21T11:51:50;102187.31;;;8.97;100.00
75414;BME280;64758;52.122;5.404;2023-02-21T11:54:24;102189.13;;;8.96;100.00
75414;BME280;64758;52.122;5.404;2023-02-21T11:57:20;102186.59;;;8.95;100.00
75414;BME280;64758;52.122;5.404;2023-02-21T12:03:20;102176.16;;;8.93;100.00
75414;BME280;64758;52.122;5.404;2023-02-21T12:06:04;102172.00;;;8.91;100.00
75414;BME280;64758;52.122;5.404;2023-02-21T12:35:31;102164.34;;;8.88;100.00
75414;BME280;64758;52.122;5.404;2023-02-21T12:43:52;102152.78;;;8.89;100.00
75414;BME280;64758;52.122;5.404;2023-02-21T12:46:27;102152.06;;;8.87;100.00
75414;BME280;64758;52.122;5.404;2023-02-21T12:49:08;102147.31;;;8.90;100.00
75414;BME280;64758;52.122;5.404;2023-02-21T12:51:45;102143.69;;;8.91;100.00
75414;BME280;64758;52.122;5.404;2023-02-21T12:54:17;102134.91;;;8.91;100.00
75414;BME280;64758;52.122;5.404;2023-02-21T12:57:01;102141.88;;;8.92;100.00
75414;BME280;64758;52.122;5.404;2023-02-21T13:02:41;102137.41;;;8.92;100.00
75414;BME280;64758;52.122;5.404;2023-02-21T13:05:17;102141.28;;;8.98;100.00
75414;BME280;64758;52.122;5.404;2023-02-21T13:10:21;102134.59;;;8.94;100.00
75414;BME280;64758;52.122;5.404;2023-02-21T13:15:23;102132.63;;;8.96;100.00
75414;BME280;64758;52.122;5.404;2023-02-21T13:20:36;102123.72;;;8.97;100.00
75414;BME280;64758;52.122;5.404;2023-02-21T13:23:06;102137.34;;;9.02;100.00
75414;BME280;64758;52.122;5.404;2023-02-21T13:28:23;102126.34;;;8.97;100.00
75414;BME280;64758;52.122;5.404;2023-02-21T13:30:56;102116.22;;;8.92;100.00
75414;BME280;64758;52.122;5.404;2023-02-21T13:33:34;102109.25;;;8.91;100.00
75414;BME280;64758;52.122;5.404;2023-02-21T13:36:01;102112.28;;;8.96;100.00
75414;BME280;64758;52.122;5.404;2023-02-21T13:38:41;102115.47;;;9.00;100.00
75414;BME280;64758;52.122;5.404;2023-02-21T13:41:10;102116.03;;;9.03;100.00
75414;BME280;64758;52.122;5.404;2023-02-21T13:43:49;102111.16;;;8.99;100.00
75414;BME280;64758;52.122;5.404;2023-02-21T13:52:22;102094.53;;;9.06;100.00
75414;BME280;64758;52.122;5.404;2023-02-21T14:05:23;102086.25;;;9.19;100.00
75414;BME280;64758;52.122;5.404;2023-02-21T14:07:59;102095.16;;;9.18;100.00
75414;BME280;64758;52.122;5.404;2023-02-21T14:10:40;102096.31;;;9.15;100.00
75414;BME280;64758;52.122;5.404;2023-02-21T14:15:49;102088.94;;;9.09;100.00
75414;BME280;64758;52.122;5.404;2023-02-21T14:18:24;102090.06;;;9.07;100.00
75414;BME280;64758;52.122;5.404;2023-02-21T14:20:54;102091.19;;;9.04;100.00
75414;BME280;64758;52.122;5.404;2023-02-21T14:23:24;102094.53;;;9.06;100.00
75414;BME280;64758;52.122;5.404;2023-02-21T14:26:03;102090.91;;;9.07;100.00
75414;BME280;64758;52.122;5.404;2023-02-21T14:28:57;102094.78;;;9.13;100.00
75414;BME280;64758;52.122;5.404;2023-02-21T14:31:47;102090.63;;;9.10;100.00
75414;BME280;64758;52.122;5.404;2023-02-21T14:34:23;102078.78;;;9.05;100.00
75414;BME280;64758;52.122;5.404;2023-02-21T14:36:53;102086.13;;;9.11;100.00
75414;BME280;64758;52.122;5.404;2023-02-21T14:39:22;102083.66;;;9.09;100.00
75414;BME280;64758;52.122;5.404;2023-02-21T14:44:36;102080.88;;;9.01;100.00
75414;BME280;64758;52.122;5.404;2023-02-21T15:03:53;102079.22;;;9.00;100.00
75414;BME280;64758;52.122;5.404;2023-02-21T15:06:26;102076.16;;;8.95;100.00
75414;BME280;64758;52.122;5.404;2023-02-21T15:08:54;102062.41;;;8.92;100.00
75414;BME280;64758;52.122;5.404;2023-02-21T15:16:40;102067.09;;;8.98;100.00
75414;BME280;64758;52.122;5.404;2023-02-21T15:19:19;102065.13;;;9.00;100.00
75414;BME280;64758;52.122;5.404;2023-02-21T15:21:45;102064.72;;;8.95;100.00
75414;BME280;64758;52.122;5.404;2023-02-21T15:24:14;102065.03;;;8.92;100.00
75414;BME280;64758;52.122;5.404;2023-02-21T15:26:41;102068.41;;;8.84;100.00
75414;BME280;64758;52.122;5.404;2023-02-21T15:29:11;102073.88;;;8.83;100.00
75414;BME280;64758;52.122;5.404;2023-02-21T15:34:31;102072.03;;;8.83;100.00
75414;BME280;64758;52.122;5.404;2023-02-21T15:37:06;102067.03;;;8.81;100.00
75414;BME280;64758;52.122;5.404;2023-02-21T15:39:39;102067.47;;;8.76;100.00
75414;BME280;64758;52.122;5.404;2023-02-21T15:42:08;102064.13;;;8.74;100.00
75414;BME280;64758;52.122;5.404;2023-02-21T15:44:40;102066.50;;;8.77;100.00
75414;BME280;64758;52.122;5.404;2023-02-21T15:47:12;102062.31;;;8.75;100.00